Time;durP1;ratioP1;P1;durP2;ratioP2;P2;SDS_P1;SDS_P2;PMS_P1;PMS_P2;Temp;Humidity;BMP_temperature;BMP_pressure;BME280_temperature;BME280_humidity;BME280_pressure;Samples;Min_cycle;Max_cycle;Signal;HPM_P1;HPM_P2
2023/08/22 00:01:57;;;;;;;;;1.00;1.00;;;;;22.11;71.21;101902.41;5091156;27;45304;-73
2023/08/22 00:04:23;;;;;;;;;2.33;1.00;;;;;22.11;71.21;101910.47;5080887;27;45578;-73
2023/08/22 00:06:48;;;;;;;;;1.00;1.00;;;;;22.10;70.92;101911.44;5080850;27;45313;-73
2023/08/22 00:09:13;;;;;;;;;1.00;1.00;;;;;21.94;72.03;101908.22;5080509;27;45384;-73
2023/08/22 00:11:39;;;;;;;;;2.67;0.00;;;;;22.04;72.87;101919.16;5081254;27;45233;-73
2023/08/22 00:14:04;;;;;;;;;2.00;0.67;;;;;22.04;73.58;101922.72;5079002;27;45303;-73
2023/08/22 00:16:29;;;;;;;;;1.00;1.00;;;;;22.00;72.88;101920.34;5084126;27;45577;-73
2023/08/22 00:18:55;;;;;;;;;0.67;0.67;;;;;21.96;74.11;101930.50;5097357;27;45969;-74
2023/08/22 00:21:21;;;;;;;;;1.00;1.00;;;;;21.88;73.44;101926.66;5083830;27;45529;-73
2023/08/22 00:23:46;;;;;;;;;1.00;1.00;;;;;21.91;74.22;101927.31;5092369;27;45960;-73
2023/08/22 00:26:11;;;;;;;;;1.33;1.00;;;;;21.87;74.41;101924.94;5081030;27;46055;-73
2023/08/22 00:28:37;;;;;;;;;1.33;1.33;;;;;21.80;74.66;101911.94;5079448;27;45478;-73
2023/08/22 00:31:02;;;;;;;;;1.00;1.00;;;;;21.82;74.39;101928.84;5079494;27;45341;-73
2023/08/22 00:33:27;;;;;;;;;1.00;1.00;;;;;21.64;73.17;101908.72;5080132;27;45402;-74
2023/08/22 00:35:53;;;;;;;;;1.67;1.00;;;;;21.66;74.13;101930.16;5078630;27;45466;-73
2023/08/22 00:38:18;;;;;;;;;1.33;0.00;;;;;21.69;75.97;101929.91;5079064;28;45791;-73
2023/08/22 00:40:43;;;;;;;;;2.00;0.00;;;;;21.68;74.56;101920.09;5081666;27;45552;-73
2023/08/22 00:43:09;;;;;;;;;1.00;1.00;;;;;21.63;75.12;101920.44;5092743;27;51589;-73
2023/08/22 00:45:35;;;;;;;;;0.67;0.67;;;;;21.59;77.10;101921.69;5086595;27;45379;-74
2023/08/22 00:48:00;;;;;;;;;2.00;2.00;;;;;21.51;76.65;101907.91;5083713;27;45367;-73
2023/08/22 00:50:25;;;;;;;;;4.00;1.00;;;;;21.56;76.76;101904.88;5082909;27;45438;-73
2023/08/22 00:52:51;;;;;;;;;0.00;0.00;;;;;21.56;77.07;101915.66;5083768;27;46115;-74
2023/08/22 00:55:17;;;;;;;;;1.00;1.00;;;;;21.53;76.74;101918.59;5094824;27;45272;-73
2023/08/22 00:57:42;;;;;;;;;1.00;1.00;;;;;21.46;77.72;101914.63;5085492;27;45292;-73
2023/08/22 01:00:10;;;;;;;;;2.00;2.00;;;;;21.51;78.28;101925.91;5086623;27;45346;-73
2023/08/22 01:02:36;;;;;;;;;1.00;1.00;;;;;21.49;77.53;101917.97;5087593;27;47132;-73
2023/08/22 01:05:03;;;;;;;;;1.00;1.00;;;;;21.46;77.44;101917.31;5078869;27;45462;-72
2023/08/22 01:07:35;;;;;;;;;0.67;0.67;;;;;21.45;77.17;101913.75;5086208;27;45367;-73
2023/08/22 01:10:24;;;;;;;;;1.00;1.00;;;;;21.43;77.20;101904.97;5085776;27;45466;-73
2023/08/22 01:13:00;;;;;;;;;2.00;2.00;;;;;21.28;77.12;101885.41;5078955;27;45423;-73
2023/08/22 01:15:28;;;;;;;;;0.00;0.00;;;;;21.42;78.71;101910.44;5079413;27;45424;-74
2023/08/22 01:17:54;;;;;;;;;1.00;1.00;;;;;21.41;79.54;101911.41;5078827;27;45311;-73
2023/08/22 01:20:21;;;;;;;;;0.67;0.67;;;;;21.38;79.36;101909.81;5081661;27;45506;-73
2023/08/22 01:22:46;;;;;;;;;1.00;1.00;;;;;21.19;77.39;101885.25;5093488;27;46310;-73
2023/08/22 01:25:11;;;;;;;;;2.00;1.00;;;;;21.33;79.04;101909.31;5088758;27;45696;-73
2023/08/22 01:27:50;;;;;;;;;1.33;1.33;;;;;21.24;78.38;101894.69;5082333;27;45324;-73
2023/08/22 01:30:22;;;;;;;;;1.00;1.00;;;;;21.19;78.85;101887.94;5078424;27;45275;-73
2023/08/22 01:32:50;;;;;;;;;1.00;1.00;;;;;21.20;79.26;101884.28;5078554;28;46249;-73
2023/08/22 01:35:20;;;;;;;;;1.00;1.00;;;;;21.24;79.91;101889.31;5083905;27;45371;-73
2023/08/22 01:37:48;;;;;;;;;0.67;0.67;;;;;21.14;79.97;101871.25;5094078;27;45379;-73
2023/08/22 01:40:14;;;;;;;;;2.00;1.00;;;;;21.06;81.22;101863.75;5097096;27;45469;-73
2023/08/22 01:42:39;;;;;;;;;1.00;1.00;;;;;21.18;80.73;101880.84;5094393;27;46275;-73
2023/08/22 01:45:05;;;;;;;;;1.00;1.00;;;;;21.15;81.06;101887.31;5088466;27;45315;-73
2023/08/22 01:47:30;;;;;;;;;2.00;2.00;;;;;21.14;82.25;101882.03;5090569;27;45516;-73
2023/08/22 01:49:56;;;;;;;;;1.00;1.00;;;;;21.10;81.67;101884.13;5082927;27;45495;-73
2023/08/22 01:52:21;;;;;;;;;2.00;1.00;;;;;21.08;81.88;101880.63;5083424;27;46151;-73
2023/08/22 01:54:48;;;;;;;;;2.00;2.00;;;;;21.04;82.81;101878.28;5082634;27;45301;-73
2023/08/22 01:57:14;;;;;;;;;1.33;1.00;;;;;20.97;83.28;101877.88;5081585;27;45302;-73
2023/08/22 01:59:39;;;;;;;;;1.00;1.00;;;;;20.97;83.43;101888.66;5094745;27;51941;-73
2023/08/22 02:02:04;;;;;;;;;2.00;1.33;;;;;20.83;81.80;101872.66;5083574;27;52035;-73
2023/08/22 02:04:29;;;;;;;;;1.67;1.67;;;;;20.93;83.84;101884.44;5092792;27;45570;-73
2023/08/22 02:06:55;;;;;;;;;1.67;1.67;;;;;20.78;85.26;101856.84;5084404;27;51788;-73
2023/08/22 02:09:20;;;;;;;;;2.00;2.00;;;;;20.88;85.06;101873.16;5092117;27;50589;-73
2023/08/22 02:11:45;;;;;;;;;1.00;1.00;;;;;20.86;84.93;101871.56;5084523;27;46110;-73
2023/08/22 02:14:11;;;;;;;;;1.67;1.67;;;;;20.79;85.49;101865.78;5101432;27;48017;-73
2023/08/22 02:16:36;;;;;;;;;2.00;1.00;;;;;20.64;85.38;101851.63;5101890;27;49709;-73
2023/08/22 02:19:01;;;;;;;;;2.00;1.00;;;;;20.69;86.31;101854.81;5099822;27;45397;-73
2023/08/22 02:21:27;;;;;;;;;2.00;1.00;;;;;20.69;86.91;101856.66;5081946;27;45451;-73
2023/08/22 02:23:52;;;;;;;;;1.00;1.00;;;;;20.71;85.08;101862.78;5101470;27;45311;-73
2023/08/22 02:26:17;;;;;;;;;2.00;1.00;;;;;20.66;86.44;101864.94;5096663;27;45469;-73
2023/08/22 02:28:43;;;;;;;;;2.00;1.00;;;;;20.68;86.75;101874.59;5089092;27;51715;-74
2023/08/22 02:31:08;;;;;;;;;0.67;0.33;;;;;20.64;86.14;101857.00;5086420;27;46430;-73
2023/08/22 02:33:33;;;;;;;;;2.00;2.00;;;;;20.68;86.55;101860.34;5080631;27;47219;-74
2023/08/22 02:35:59;;;;;;;;;1.00;1.00;;;;;20.65;86.33;101861.38;5085188;27;45427;-73
2023/08/22 02:38:24;;;;;;;;;1.00;1.00;;;;;20.65;87.33;101857.84;5080726;27;45379;-73
2023/08/22 02:40:50;;;;;;;;;1.33;1.00;;;;;20.59;88.38;101844.84;5093083;27;46212;-73
2023/08/22 02:43:16;;;;;;;;;2.00;2.00;;;;;20.59;85.99;101843.03;5098622;27;45384;-73
2023/08/22 02:45:44;;;;;;;;;3.00;1.67;;;;;20.57;86.43;101849.50;5091101;27;45236;-73
2023/08/22 02:48:09;;;;;;;;;0.00;0.00;;;;;20.51;88.09;101840.03;5093148;27;45360;-73
2023/08/22 02:50:36;;;;;;;;;1.00;1.00;;;;;20.56;88.31;101847.75;5082612;27;46174;-73
2023/08/22 02:53:02;;;;;;;;;1.00;1.00;;;;;20.55;89.00;101854.97;5083461;27;45573;-73
2023/08/22 02:55:28;;;;;;;;;2.33;2.00;;;;;20.48;88.24;101852.84;5092350;27;45288;-73
2023/08/22 02:57:53;;;;;;;;;1.00;1.00;;;;;20.30;89.16;101817.38;5092313;27;45534;-73
2023/08/22 03:00:18;;;;;;;;;2.00;2.00;;;;;20.44;88.97;101845.97;5081812;27;48393;-73
2023/08/22 03:02:44;;;;;;;;;1.00;1.00;;;;;20.43;87.76;101849.59;5088875;27;45370;-73
2023/08/22 03:05:13;;;;;;;;;1.00;1.00;;;;;20.37;88.00;101842.00;5084283;27;45352;-73
2023/08/22 03:07:39;;;;;;;;;1.00;1.00;;;;;20.34;89.58;101845.75;5080512;27;45488;-73
2023/08/22 03:10:04;;;;;;;;;3.00;2.00;;;;;20.40;89.34;101864.13;5079310;27;45307;-73
2023/08/22 03:12:30;;;;;;;;;2.67;1.33;;;;;20.38;89.46;101862.53;5080871;27;45446;-73
2023/08/22 03:14:55;;;;;;;;;1.00;1.00;;;;;20.31;87.59;101855.88;5084791;27;45184;-73
2023/08/22 03:17:20;;;;;;;;;2.33;1.00;;;;;20.35;87.76;101854.69;5084415;27;45255;-73
2023/08/22 03:19:46;;;;;;;;;2.00;2.00;;;;;20.35;89.76;101850.19;5098004;27;46191;-73
2023/08/22 03:22:11;;;;;;;;;3.00;2.00;;;;;20.29;89.72;101847.06;5089602;27;52766;-73
2023/08/22 03:24:36;;;;;;;;;1.00;1.00;;;;;20.30;90.07;101841.56;5086085;27;45304;-73
2023/08/22 03:27:01;;;;;;;;;1.67;1.67;;;;;20.32;90.31;101845.00;5087008;27;45305;-73
2023/08/22 03:29:27;;;;;;;;;2.00;2.00;;;;;20.32;91.12;101839.63;5083820;27;45376;-73
2023/08/22 03:31:53;;;;;;;;;3.00;1.33;;;;;20.30;91.29;101841.56;5081063;27;45549;-72
2023/08/22 03:34:18;;;;;;;;;1.33;1.33;;;;;20.32;91.50;101844.16;5083393;27;45429;-73
2023/08/22 03:36:43;;;;;;;;;1.33;1.33;;;;;20.31;90.96;101847.81;5090764;27;45325;-74
2023/08/22 03:39:09;;;;;;;;;2.00;1.00;;;;;20.33;90.68;101853.91;5080453;27;46104;-73
2023/08/22 03:41:34;;;;;;;;;3.00;2.00;;;;;20.33;88.75;101857.47;5081483;27;45297;-73
2023/08/22 03:43:59;;;;;;;;;2.00;2.00;;;;;20.33;91.37;101851.22;5081308;27;45471;-73
2023/08/22 03:46:25;;;;;;;;;1.00;1.00;;;;;20.35;92.01;101852.00;5080523;27;45289;-73
2023/08/22 03:48:50;;;;;;;;;2.00;2.00;;;;;20.35;93.13;101849.31;5080939;27;45898;-73
2023/08/22 03:51:16;;;;;;;;;1.33;1.33;;;;;20.35;91.77;101852.88;5081862;27;45569;-73
2023/08/22 03:53:41;;;;;;;;;2.00;2.00;;;;;20.39;91.41;101853.47;5080850;27;44654;-73
2023/08/22 03:56:06;;;;;;;;;3.00;1.00;;;;;20.44;92.24;101854.03;5080717;27;45478;-73
2023/08/22 03:58:32;;;;;;;;;1.00;1.00;;;;;20.38;89.72;101846.41;5091890;27;46202;-73
2023/08/22 04:01:06;;;;;;;;;1.00;1.00;;;;;20.48;89.58;101856.41;5083789;27;46651;-73
2023/08/22 04:03:31;;;;;;;;;1.00;1.00;;;;;20.45;87.62;101855.75;5082764;27;45386;-73
2023/08/22 04:06:03;;;;;;;;;1.00;1.00;;;;;20.50;89.94;101858.97;5079870;27;45429;-73
2023/08/22 04:08:29;;;;;;;;;2.00;1.00;;;;;20.49;90.59;101852.72;5082524;27;46825;-73
2023/08/22 04:10:55;;;;;;;;;2.67;2.67;;;;;20.49;88.77;101852.72;5079879;27;45426;-73
2023/08/22 04:13:21;;;;;;;;;0.00;0.00;;;;;20.52;90.09;101854.31;5079510;27;45403;-73
2023/08/22 04:15:46;;;;;;;;;1.33;1.33;;;;;20.47;88.31;101845.75;5079683;28;45459;-72
2023/08/22 04:18:11;;;;;;;;;1.00;1.00;;;;;20.51;87.29;101858.00;5070135;28;48341;-73
2023/08/22 04:20:37;;;;;;;;;3.00;2.67;;;;;20.43;87.81;101842.41;5086010;27;45382;-72
2023/08/22 04:23:02;;;;;;;;;1.00;1.00;;;;;20.46;89.22;101854.75;5098897;27;45293;-73
2023/08/22 04:25:28;;;;;;;;;2.00;2.00;;;;;20.46;88.69;101858.31;5089975;27;45304;-74
2023/08/22 04:27:53;;;;;;;;;2.00;2.00;;;;;20.47;88.63;101853.81;5089337;27;45614;-73
2023/08/22 04:30:18;;;;;;;;;2.33;1.33;;;;;20.45;88.17;101858.44;5079859;27;45287;-73
2023/08/22 04:32:44;;;;;;;;;2.00;2.00;;;;;20.41;89.14;101865.84;5080207;27;45537;-73
2023/08/22 04:35:09;;;;;;;;;2.33;2.00;;;;;20.31;89.57;101850.50;5078477;27;45620;-73
2023/08/22 04:37:35;;;;;;;;;2.67;1.00;;;;;20.37;91.59;101864.34;5078363;27;46112;-73
2023/08/22 04:40:00;;;;;;;;;2.00;2.00;;;;;20.38;88.48;101865.22;5086941;27;45332;-74
2023/08/22 04:42:25;;;;;;;;;3.00;1.00;;;;;20.25;89.57;101847.22;5099442;27;45356;-73
2023/08/22 04:44:51;;;;;;;;;2.00;2.00;;;;;20.30;89.75;101848.75;5079570;27;45592;-74
2023/08/22 04:47:16;;;;;;;;;2.00;1.00;;;;;20.25;89.27;101849.91;5090859;27;46218;-73
2023/08/22 04:49:41;;;;;;;;;3.00;1.67;;;;;20.30;89.90;101859.50;5080917;27;45788;-74
2023/08/22 04:52:07;;;;;;;;;1.00;1.00;;;;;20.31;90.82;101869.31;5080519;27;45324;-73
2023/08/22 04:54:33;;;;;;;;;3.00;2.00;;;;;20.29;91.17;101860.50;5063481;27;45622;-74
2023/08/22 04:56:58;;;;;;;;;2.33;1.00;;;;;20.20;89.60;101852.09;5083307;27;45553;-73
2023/08/22 04:59:23;;;;;;;;;1.00;1.00;;;;;20.27;92.10;101869.53;5079030;27;45402;-74
2023/08/22 05:01:49;;;;;;;;;5.00;2.00;;;;;20.24;89.39;101871.53;5079071;27;45544;-73
2023/08/22 05:04:16;;;;;;;;;2.00;2.00;;;;;20.17;92.31;101871.09;5086860;27;45400;-73
2023/08/22 05:06:42;;;;;;;;;2.33;2.33;;;;;20.19;93.19;101879.91;5078652;27;46123;-74
2023/08/22 05:09:09;;;;;;;;;3.00;3.00;;;;;20.22;90.39;101885.06;5079635;27;45227;-73
2023/08/22 05:11:35;;;;;;;;;2.00;2.00;;;;;20.26;93.28;101885.69;5079616;27;45496;-73
2023/08/22 05:14:00;;;;;;;;;2.67;2.33;;;;;20.21;94.24;101877.13;5082742;27;45469;-73
2023/08/22 05:16:25;;;;;;;;;4.33;2.00;;;;;20.30;94.98;101889.06;5082681;27;46124;-73
2023/08/22 05:18:51;;;;;;;;;2.00;2.00;;;;;20.31;95.84;101888.97;5083089;27;45420;-74
2023/08/22 05:21:16;;;;;;;;;5.00;2.00;;;;;20.36;95.03;101884.13;5082074;27;45421;-73
2023/08/22 05:23:42;;;;;;;;;4.67;1.00;;;;;20.33;96.08;101865.53;5083454;27;45327;-73
2023/08/22 05:26:07;;;;;;;;;5.00;2.00;;;;;20.34;96.20;101858.34;5087043;27;46149;-73
2023/08/22 05:28:32;;;;;;;;;2.00;2.00;;;;;20.40;94.98;101895.50;5092119;27;45323;-73
2023/08/22 05:30:58;;;;;;;;;3.00;3.00;;;;;20.34;96.44;101861.03;5085248;27;45352;-73
2023/08/22 05:33:23;;;;;;;;;2.67;2.00;;;;;20.40;96.21;101882.94;5084522;27;45644;-73
2023/08/22 05:35:48;;;;;;;;;1.00;1.00;;;;;20.34;97.41;101867.25;5096093;27;45544;-73
2023/08/22 05:38:14;;;;;;;;;5.67;2.00;;;;;20.40;97.08;101882.94;5084594;27;45403;-73
2023/08/22 05:40:39;;;;;;;;;2.00;2.00;;;;;20.45;97.30;101886.16;5085889;27;45550;-73
2023/08/22 05:43:04;;;;;;;;;4.00;2.00;;;;;20.41;97.80;101878.44;5086223;27;51269;-73
2023/08/22 05:45:29;;;;;;;;;2.00;2.00;;;;;20.46;98.75;101884.31;5085819;27;45320;-73
2023/08/22 05:47:55;;;;;;;;;3.00;3.00;;;;;20.50;91.75;101881.31;5086247;27;54957;-73
2023/08/22 05:50:20;;;;;;;;;1.00;1.00;;;;;20.54;96.92;101890.03;5084265;27;45624;-73
2023/08/22 05:52:45;;;;;;;;;2.00;2.00;;;;;20.57;97.92;101890.66;5085121;27;48864;-73
2023/08/22 05:55:11;;;;;;;;;2.00;2.00;;;;;20.59;94.68;101891.41;5092197;27;45349;-73
2023/08/22 05:57:36;;;;;;;;;1.67;1.67;;;;;20.60;94.30;101881.53;5085954;27;45408;-74
2023/08/22 06:00:03;;;;;;;;;2.00;2.00;;;;;20.52;96.96;101874.00;5081795;27;45322;-73
2023/08/22 06:02:28;;;;;;;;;3.00;2.00;;;;;20.73;99.47;101902.03;5082748;27;45468;-73
2023/08/22 06:04:53;;;;;;;;;3.00;3.00;;;;;20.81;98.11;101906.84;5095870;27;46090;-73
2023/08/22 06:07:19;;;;;;;;;5.33;4.67;;;;;20.90;97.79;101921.47;5091552;27;45328;-72
2023/08/22 06:09:44;;;;;;;;;3.00;3.00;;;;;20.96;95.72;101911.13;5101372;27;46813;-72
2023/08/22 06:12:11;;;;;;;;;2.00;2.00;;;;;21.05;92.63;101925.72;5102551;27;45521;-72
2023/08/22 06:14:37;;;;;;;;;3.33;3.33;;;;;20.96;88.17;101902.19;5094812;27;45358;-73
2023/08/22 06:17:03;;;;;;;;;3.33;3.00;;;;;21.08;87.78;101914.72;5091497;27;45323;-73
2023/08/22 06:19:28;;;;;;;;;3.00;3.00;;;;;21.16;92.07;101923.16;5084849;27;45675;-72
2023/08/22 06:21:54;;;;;;;;;3.67;3.67;;;;;21.14;94.38;101914.31;5082341;27;45552;-73
2023/08/22 06:24:19;;;;;;;;;6.00;4.00;;;;;21.28;96.73;101933.84;5090096;27;45514;-73
2023/08/22 06:26:44;;;;;;;;;6.00;5.00;;;;;21.31;99.50;101938.16;5093221;27;45335;-73
2023/08/22 06:29:10;;;;;;;;;7.00;3.00;;;;;21.38;97.16;101936.72;5097326;27;45330;-73
2023/08/22 06:31:35;;;;;;;;;4.67;3.33;;;;;21.42;93.26;101930.16;5087730;27;45350;-73
2023/08/22 06:34:01;;;;;;;;;4.00;3.00;;;;;21.46;93.29;101936.16;5088745;27;46121;-73
2023/08/22 06:36:27;;;;;;;;;3.33;2.00;;;;;21.40;95.28;101915.09;5096400;27;45371;-73
2023/08/22 06:38:53;;;;;;;;;6.00;3.00;;;;;21.50;96.25;101919.66;5097156;27;45442;-74
2023/08/22 06:41:19;;;;;;;;;2.33;2.33;;;;;21.53;97.45;101911.34;5083164;27;45478;-73
2023/08/22 06:43:44;;;;;;;;;5.67;4.67;;;;;21.68;95.43;101925.50;5093091;27;46329;-73
2023/08/22 06:46:10;;;;;;;;;4.00;3.33;;;;;21.73;93.60;101917.91;5097723;27;45323;-73
2023/08/22 06:48:35;;;;;;;;;4.00;3.00;;;;;21.71;94.83;101901.03;5099471;27;45505;-73
2023/08/22 06:51:00;;;;;;;;;3.67;3.67;;;;;21.78;86.00;101911.22;5094331;27;45344;-73
2023/08/22 06:53:26;;;;;;;;;4.67;4.67;;;;;21.90;89.20;101922.91;5090428;27;47805;-73
2023/08/22 06:55:51;;;;;;;;;3.00;3.00;;;;;21.89;85.87;101926.56;5097517;27;47628;-72
2023/08/22 06:58:17;;;;;;;;;3.00;3.00;;;;;21.96;86.12;101937.72;5101113;27;45400;-73
2023/08/22 07:00:43;;;;;;;;;4.00;4.00;;;;;21.98;82.26;101941.19;5093189;27;45347;-73
2023/08/22 07:03:08;;;;;;;;;7.33;5.67;;;;;22.06;84.63;101936.03;5085306;27;45380;-73
2023/08/22 07:05:36;;;;;;;;;3.00;3.00;;;;;22.13;88.10;101940.84;5081664;27;45395;-73
2023/08/22 07:08:01;;;;;;;;;3.67;3.67;;;;;22.10;83.42;101930.31;5083889;27;45475;-73
2023/08/22 07:10:26;;;;;;;;;5.67;3.00;;;;;22.21;82.88;101940.25;5090043;27;45618;-73
2023/08/22 07:12:52;;;;;;;;;5.67;5.00;;;;;22.22;79.61;101941.97;5092685;27;50754;-74
2023/08/22 07:15:17;;;;;;;;;3.00;3.00;;;;;22.23;79.86;101927.53;5085548;27;45449;-73
2023/08/22 07:17:43;;;;;;;;;8.00;3.67;;;;;22.23;81.15;101905.97;5081763;27;45400;-73
2023/08/22 07:20:08;;;;;;;;;4.00;3.00;;;;;22.44;79.49;101916.91;5084099;27;45430;-73
2023/08/22 07:22:34;;;;;;;;;4.33;3.67;;;;;22.50;80.03;101909.19;5090537;27;46338;-73
2023/08/22 07:24:59;;;;;;;;;3.00;3.00;;;;;22.65;78.16;101926.81;5087680;27;45474;-73
2023/08/22 07:27:24;;;;;;;;;6.00;4.00;;;;;22.74;79.46;101928.81;5096550;27;45435;-73
2023/08/22 07:29:50;;;;;;;;;6.00;4.67;;;;;22.81;76.91;101927.34;5082188;27;45457;-73
2023/08/22 07:32:18;;;;;;;;;7.00;5.00;;;;;22.83;78.51;101913.75;5085250;27;46111;-73
2023/08/22 07:34:44;;;;;;;;;5.00;3.00;;;;;22.84;74.52;101899.25;5079540;27;45387;-73
2023/08/22 07:37:10;;;;;;;;;6.00;5.00;;;;;23.00;76.27;101917.75;5081424;27;45494;-73
2023/08/22 07:39:35;;;;;;;;;4.00;4.00;;;;;23.13;75.76;101937.38;5086591;27;48265;-73
2023/08/22 07:42:00;;;;;;;;;7.00;5.00;;;;;23.21;73.05;101951.06;5086688;27;45531;-73
2023/08/22 07:44:26;;;;;;;;;5.33;4.00;;;;;23.28;74.28;101950.47;5082227;27;45435;-73
2023/08/22 07:46:51;;;;;;;;;4.00;4.00;;;;;23.39;73.38;101940.63;5084486;27;45513;-73
2023/08/22 07:49:16;;;;;;;;;4.00;3.00;;;;;23.46;72.38;101941.88;5083712;28;47170;-73
2023/08/22 07:51:42;;;;;;;;;5.00;5.00;;;;;23.51;71.93;101926.97;5083992;27;45392;-73
2023/08/22 07:54:07;;;;;;;;;6.00;3.67;;;;;23.64;70.60;101938.47;5082774;27;46637;-73
2023/08/22 07:56:34;;;;;;;;;4.00;2.00;;;;;23.73;72.82;101939.53;5086776;27;47717;-73
2023/08/22 07:59:00;;;;;;;;;4.33;4.00;;;;;23.84;71.34;101932.25;5079689;27;46471;-73
2023/08/22 08:01:25;;;;;;;;;6.00;4.00;;;;;24.01;68.97;101938.91;5089102;27;46109;-73
2023/08/22 08:03:50;;;;;;;;;3.67;3.67;;;;;24.01;71.60;101927.25;5087590;27;45299;-73
2023/08/22 08:06:16;;;;;;;;;6.33;6.33;;;;;24.17;70.58;101931.22;5091286;27;45288;-73
2023/08/22 08:08:41;;;;;;;;;4.00;4.00;;;;;24.27;70.30;101928.59;5082995;27;55033;-73
2023/08/22 08:11:06;;;;;;;;;4.00;4.00;;;;;24.47;69.51;101948.50;5087563;27;48276;-73
2023/08/22 08:13:32;;;;;;;;;4.00;4.00;;;;;24.56;70.08;101940.41;5084124;27;45296;-73
2023/08/22 08:15:57;;;;;;;;;6.00;4.00;;;;;24.73;67.91;101944.34;5080402;27;45411;-74
2023/08/22 08:18:22;;;;;;;;;5.33;2.33;;;;;24.82;68.94;101940.84;5078593;27;45352;-73
2023/08/22 08:20:47;;;;;;;;;3.33;3.33;;;;;24.93;67.35;101943.47;5084015;27;46159;-73
2023/08/22 08:23:13;;;;;;;;;2.00;2.00;;;;;25.00;66.22;101941.91;5078222;27;45296;-73
2023/08/22 08:25:38;;;;;;;;;3.00;2.67;;;;;25.22;67.66;101951.66;5081002;27;45565;-73
2023/08/22 08:28:07;;;;;;;;;3.33;3.33;;;;;25.28;66.38;101940.28;5080048;27;45300;-73
2023/08/22 08:30:33;;;;;;;;;6.00;4.33;;;;;25.46;64.16;101949.41;5078623;27;45979;-73
2023/08/22 08:32:58;;;;;;;;;5.67;4.00;;;;;25.59;63.15;101957.31;5085897;27;45499;-73
2023/08/22 08:35:23;;;;;;;;;3.33;3.33;;;;;25.64;61.96;101957.75;5081152;27;45463;-73
2023/08/22 08:37:49;;;;;;;;;6.33;4.00;;;;;25.67;65.53;101943.91;5079927;27;49261;-73
2023/08/22 08:40:15;;;;;;;;;4.67;4.33;;;;;25.85;62.67;101953.06;5079570;27;46296;-73
2023/08/22 08:42:41;;;;;;;;;4.67;3.00;;;;;26.02;62.53;101955.03;5090092;27;45291;-73
2023/08/22 08:45:08;;;;;;;;;2.33;2.33;;;;;26.12;64.05;101941.44;5088071;27;45512;-74
2023/08/22 08:47:34;;;;;;;;;2.00;2.00;;;;;26.25;62.29;101934.75;5098920;27;45299;-73
2023/08/22 08:50:01;;;;;;;;;3.00;3.00;;;;;26.38;59.57;101932.56;5094448;27;46290;-73
2023/08/22 08:52:27;;;;;;;;;3.00;3.00;;;;;26.55;60.70;101947.25;5087964;27;45372;-74
2023/08/22 08:54:53;;;;;;;;;3.00;3.00;;;;;26.67;61.43;101940.63;5097576;27;45366;-73
2023/08/22 08:57:19;;;;;;;;;6.00;5.00;;;;;26.74;58.58;101930.88;5087671;27;45263;-73
2023/08/22 08:59:45;;;;;;;;;4.67;4.67;;;;;26.83;59.39;101940.03;5079726;27;45582;-74
2023/08/22 09:02:15;;;;;;;;;6.00;3.00;;;;;26.87;60.09;101919.69;5082153;27;45426;-73
2023/08/22 09:04:40;;;;;;;;;5.33;2.33;;;;;27.05;59.91;101931.47;5091249;27;45410;-74
2023/08/22 09:07:07;;;;;;;;;3.00;3.00;;;;;27.16;58.15;101914.94;5082693;27;46201;-74
2023/08/22 09:09:36;;;;;;;;;4.33;3.00;;;;;27.32;59.18;101917.84;5082555;27;46245;-73
2023/08/22 09:12:08;;;;;;;;;4.00;3.33;;;;;27.44;59.07;101910.38;5081489;27;45572;-73
2023/08/22 09:14:34;;;;;;;;;4.67;3.33;;;;;27.56;55.84;101916.41;5090048;27;45459;-74
2023/08/22 09:17:01;;;;;;;;;2.67;2.67;;;;;27.65;54.16;101916.34;5082797;27;45380;-73
2023/08/22 09:19:31;;;;;;;;;3.33;3.33;;;;;27.70;56.19;101910.44;5078358;27;47229;-74
2023/08/22 09:21:58;;;;;;;;;3.00;3.00;;;;;27.84;56.39;101916.19;5085788;27;45394;-73
2023/08/22 09:24:25;;;;;;;;;6.33;5.33;;;;;27.98;55.49;101922.06;5080150;27;45297;-73
2023/08/22 09:26:51;;;;;;;;;1.67;1.67;;;;;27.93;53.91;101904.34;5078448;27;45309;-73
2023/08/22 09:29:25;;;;;;;;;1.00;1.00;;;;;28.09;52.80;101924.56;5084010;27;46344;-73
2023/08/22 09:31:51;;;;;;;;;4.00;2.67;;;;;28.05;51.22;101904.94;5082321;27;45311;-73
2023/08/22 09:34:17;;;;;;;;;2.00;2.00;;;;;28.21;51.00;101920.56;5079084;27;45456;-73
2023/08/22 09:36:44;;;;;;;;;1.67;1.33;;;;;28.27;52.66;101918.03;5078320;27;45515;-74
2023/08/22 09:39:13;;;;;;;;;3.00;1.00;;;;;28.35;50.07;101919.97;5086692;27;47139;-73
2023/08/22 09:41:39;;;;;;;;;1.00;1.00;;;;;28.45;49.61;101904.38;5089083;27;45194;-73
2023/08/22 09:44:06;;;;;;;;;2.00;1.00;;;;;28.43;48.40;101904.56;5086188;27;45262;-73
2023/08/22 09:46:31;;;;;;;;;2.33;0.67;;;;;28.50;46.47;101910.19;5080684;27;45234;-74
2023/08/22 09:49:00;;;;;;;;;1.00;1.00;;;;;28.57;48.49;101908.53;5087869;27;45844;-73
2023/08/22 09:51:25;;;;;;;;;0.33;0.33;;;;;28.64;47.47;101915.03;5077114;27;45527;-74
2023/08/22 09:53:53;;;;;;;;;1.67;1.00;;;;;28.60;47.38;101896.47;5080489;27;45549;-74
2023/08/22 09:56:20;;;;;;;;;1.00;1.00;;;;;28.72;49.31;101906.09;5082571;27;45445;-74
2023/08/22 09:58:46;;;;;;;;;1.33;1.33;;;;;28.86;47.92;101914.47;5092919;27;45413;-73
2023/08/22 10:01:14;;;;;;;;;1.67;1.67;;;;;28.91;49.87;101914.00;5087028;27;45484;-73
2023/08/22 10:03:40;;;;;;;;;1.67;1.67;;;;;29.01;46.52;101905.69;5091329;27;45398;-73
2023/08/22 10:06:10;;;;;;;;;1.33;1.33;;;;;29.04;48.37;101894.47;5085740;27;45300;-73
2023/08/22 10:08:36;;;;;;;;;2.33;1.33;;;;;29.01;47.67;101892.94;5084110;28;46807;-74
2023/08/22 10:11:02;;;;;;;;;1.33;1.33;;;;;29.15;47.44;101892.28;5082421;27;45294;-73
2023/08/22 10:13:29;;;;;;;;;2.00;1.67;;;;;29.22;45.99;101897.94;5081985;27;45357;-74
2023/08/22 10:15:56;;;;;;;;;6.00;3.00;;;;;29.11;48.05;101895.50;5085231;27;45407;-73
2023/08/22 10:18:25;;;;;;;;;1.00;1.00;;;;;29.20;47.09;101905.41;5092947;27;45458;-73
2023/08/22 10:20:53;;;;;;;;;2.00;2.00;;;;;29.16;48.36;101898.56;5087799;27;45959;-73
2023/08/22 10:23:44;;;;;;;;;2.00;2.00;;;;;29.13;48.25;101896.19;5095479;27;45363;-74
2023/08/22 10:26:10;;;;;;;;;1.00;1.00;;;;;29.12;47.11;101879.00;5085602;27;45400;-74
2023/08/22 10:28:42;;;;;;;;;2.33;1.00;;;;;29.30;46.51;101893.38;5081207;27;46193;-73
2023/08/22 10:31:08;;;;;;;;;1.00;1.00;;;;;29.35;46.69;101899.16;5081918;27;45441;-74
2023/08/22 10:33:33;;;;;;;;;0.00;0.00;;;;;29.40;45.87;101899.53;5089456;27;45257;-73
2023/08/22 10:36:07;;;;;;;;;2.00;1.67;;;;;29.42;47.17;101893.88;5096936;27;45320;-73
2023/08/22 10:38:51;;;;;;;;;0.33;0.33;;;;;29.45;45.29;101899.84;5089968;27;46985;-73
2023/08/22 10:41:16;;;;;;;;;1.00;1.00;;;;;29.49;45.02;101903.09;5085830;27;45366;-74
2023/08/22 10:43:42;;;;;;;;;3.00;1.67;;;;;29.43;45.53;101876.53;5096458;27;45508;-74
2023/08/22 10:46:07;;;;;;;;;1.00;1.00;;;;;29.58;46.52;101882.16;5089984;27;46514;-74
2023/08/22 10:48:32;;;;;;;;;1.00;1.00;;;;;29.41;44.48;101863.06;5083716;27;45386;-74
2023/08/22 10:51:06;;;;;;;;;1.67;1.67;;;;;29.58;46.00;101890.34;5087537;27;45434;-74
2023/08/22 10:53:43;;;;;;;;;2.00;2.00;;;;;29.59;45.83;101892.03;5084687;27;45670;-74
2023/08/22 10:56:20;;;;;;;;;2.00;2.00;;;;;29.63;43.92;101893.41;5091365;27;45492;-73
2023/08/22 10:58:58;;;;;;;;;2.00;2.00;;;;;29.57;44.97;101888.63;5093179;27;46548;-74
2023/08/22 11:01:24;;;;;;;;;3.67;2.00;;;;;29.57;44.05;101886.75;5084578;27;45371;-74
2023/08/22 11:03:51;;;;;;;;;2.33;1.00;;;;;29.62;46.76;101888.97;5082400;27;45312;-74
2023/08/22 11:06:18;;;;;;;;;3.00;1.33;;;;;29.58;46.11;101876.72;5101305;27;45540;-74
2023/08/22 11:08:44;;;;;;;;;2.00;2.00;;;;;29.63;44.35;101886.09;5082006;27;46068;-74
2023/08/22 11:11:17;;;;;;;;;1.00;1.00;;;;;29.56;44.69;101874.16;5078657;27;45997;-74
2023/08/22 11:13:43;;;;;;;;;3.00;1.00;;;;;29.63;45.23;101875.16;5096905;27;45419;-74
2023/08/22 11:16:12;;;;;;;;;2.00;2.00;;;;;29.58;44.21;101874.81;5093476;27;45489;-74
2023/08/22 11:18:39;;;;;;;;;2.00;2.00;;;;;29.65;45.66;101874.97;5070657;27;45503;-73
2023/08/22 11:21:05;;;;;;;;;1.67;1.67;;;;;29.73;46.00;101869.53;5097573;27;45579;-74